ADDS METAR Data INFO
IDs: Format: Raw Decoded Include TAF

Data at: 1518 UTC 23 Oct 2017

KRQO 231455Z AUTO 26012KT 10SM CLR 16/06 A3011 RMK AO2 T01620060
KRQO 231435Z AUTO 24010KT 10SM CLR 16/06 A3008 RMK AO2 T01560062
KRQO 231415Z AUTO 23013KT 10SM CLR 14/06 A3007 RMK AO2 T01390060
KRQO 231355Z AUTO 23012KT 10SM CLR 13/06 A3007 RMK AO2 T01270056
KRQO 231335Z AUTO 23008KT 10SM CLR 11/05 A3006 RMK AO2 T01070053
KRQO 231315Z AUTO 23007KT 10SM CLR 10/05 A3006 RMK AO2 T00960049
KRQO 231255Z AUTO 23008KT 10SM CLR 09/05 A3006 RMK AO2 T00910049
KRQO 231235Z AUTO 23009KT 10SM CLR 10/04 A3006 RMK AO2 T00960044
KRQO 231215Z AUTO 23010KT 10SM CLR 09/04 A3005 RMK AO2 T00950043
KRQO 231155Z AUTO 22011KT 10SM CLR 09/04 A3005 RMK AO2 T00930045 10103 20082
KRQO 231135Z AUTO 22010KT 10SM CLR 09/05 A3006 RMK AO2 T00930047
KRQO 231110Z AUTO 22010KT 10SM CLR 09/05 A3006 RMK AO2 T00910050
KRQO 231055Z AUTO 22010KT 10SM CLR 09/05 A3006 RMK AO2 T00940048
KRQO 231035Z AUTO 23010KT 10SM CLR 10/05 A3007 RMK AO2 T01000048
KRQO 231015Z AUTO 22011KT 10SM CLR 10/05 A3007 RMK AO2 T01010048
KRQO 230955Z AUTO 22009KT 10SM CLR 10/05 A3007 RMK AO2 T00960052
KRQO 230935Z AUTO 22009KT 10SM CLR 09/06 A3007 RMK AO2 T00880056
KRQO 230915Z AUTO 22008KT 10SM CLR 09/05 A3008 RMK AO2 T00880054
KRQO 230855Z AUTO 21009KT 10SM CLR 09/05 A3009 RMK AO2 T00890054
KRQO 230835Z AUTO 20008KT 10SM CLR 09/06 A3009 RMK AO2 T00920057
KRQO 230815Z AUTO 20009KT 10SM CLR 10/06 A3009 RMK AO2 T00990055
KRQO 230755Z AUTO 20010KT 10SM CLR 10/05 A3010 RMK AO2 T01000054
KRQO 230735Z AUTO 19007KT 10SM CLR 09/06 A3011 RMK AO2 T00870062
KRQO 230715Z AUTO 18007KT 10SM CLR 08/06 A3011 RMK AO2 T00840060
KRQO 230655Z AUTO 18005KT 10SM CLR 09/06 A3012 RMK AO2 T00880057
KRQO 230635Z AUTO 19006KT 10SM CLR 09/06 A3012 RMK AO2 T00890061
KRQO 230615Z AUTO 20007KT 10SM CLR 09/06 A3012 RMK AO2 T00920062
KRQO 230555Z AUTO 18008KT 10SM CLR 09/06 A3013 RMK AO2 T00930064 10147 20092
KRQO 230535Z AUTO 18008KT 10SM CLR 09/07 A3013 RMK AO2 T00950066
KRQO 230515Z AUTO 18008KT 10SM CLR 09/07 A3013 RMK AO2 T00920068
KRQO 230455Z AUTO 17007KT 10SM CLR 10/06 A3013 RMK AO2 T00980064
KRQO 230435Z AUTO 19008KT 10SM CLR 10/06 A3014 RMK AO2 T01030064
KRQO 230415Z AUTO 18009KT 10SM CLR 11/06 A3014 RMK AO2 T01060062
KRQO 230355Z AUTO 19007KT 10SM CLR 10/07 A3015 RMK AO2 T01020067
KRQO 230335Z AUTO 19009KT 10SM CLR 11/07 A3015 RMK AO2 T01090067
KRQO 230315Z AUTO 19008KT 10SM CLR 11/07 A3014 RMK AO2 T01090074
KRQO 230255Z AUTO 18008KT 10SM CLR 11/07 A3014 RMK AO2 T01080075
KRQO 230235Z AUTO 17009KT 10SM CLR 11/08 A3014 RMK AO2 T01100075
KRQO 230215Z AUTO 17009KT 10SM CLR 11/08 A3015 RMK AO2 T01090082
KRQO 230155Z AUTO 18007KT 10SM CLR 12/08 A3015 RMK AO2 T01150082
KRQO 230135Z AUTO 17007KT 10SM CLR 12/08 A3015 RMK AO2 T01170083
KRQO 230110Z AUTO 15008KT 10SM CLR 12/07 A3015 RMK AO2 T01240074
KRQO 230055Z AUTO 14008KT 10SM CLR 13/07 A3015 RMK AO2 T01270072
KRQO 230035Z AUTO 14007KT 10SM CLR 13/08 A3016 RMK AO2 T01290077
KRQO 230010Z AUTO 14007KT 10SM CLR 14/07 A3015 RMK AO2 T01420071
KRQO 222335Z AUTO 13005KT 10SM CLR 17/07 A3015 RMK AO2 T01650073
KRQO 222315Z AUTO 14003KT 10SM CLR 18/08 A3015 RMK AO2 T01780082
KRQO 222255Z AUTO 00000KT 10SM CLR 19/03 A3016 RMK AO2 T01910033
KRQO 222235Z AUTO 00000KT 10SM CLR 20/04 A3016 RMK AO2 T01950036
KRQO 222215Z AUTO 00000KT 10SM CLR 20/03 A3016 RMK AO2 T01960028
KRQO 222155Z AUTO 35003KT 10SM CLR 20/03 A3017 RMK AO2 T01970030
KRQO 222135Z AUTO 33005KT 10SM CLR 20/03 A3017 RMK AO2 T01980033
KRQO 222115Z AUTO 31006KT 10SM CLR 20/04 A3018 RMK AO2
KRQO 222055Z AUTO 31007KT 10SM CLR 20/04 A3018 RMK AO2 T01960037
KRQO 222035Z AUTO 30004KT 10SM CLR 20/05 A3018 RMK AO2 T01960048
KRQO 222015Z AUTO 25004KT 10SM CLR 20/05 A3019 RMK AO2 T01950046
KRQO 221955Z AUTO 36004KT 10SM CLR 19/03 A3020 RMK AO2 T01900033
KRQO 221935Z AUTO 01004KT 10SM CLR 19/05 A3020 RMK AO2 T01890048
KRQO 221915Z AUTO 32005KT 10SM CLR 19/05 A3021 RMK AO2 T01860053
KRQO 221855Z AUTO 32007KT 280V350 10SM CLR 18/04 A3022 RMK AO2 T01850045
KRQO 221835Z AUTO 34006KT 10SM CLR 18/04 A3023 RMK AO2 T01820045
KRQO 221815Z AUTO 33007KT 290V350 10SM CLR 18/06 A3024 RMK AO2 T01810061
KRQO 221755Z AUTO 31008KT 10SM CLR 17/06 A3025 RMK AO2 T01730063 10179 20077
KRQO 221735Z AUTO 30007KT 10SM CLR 17/08 A3026 RMK AO2 T01720077
KRQO 221715Z AUTO 31009G16KT 10SM CLR 17/08 A3026 RMK AO2 T01680084
KRQO 221655Z AUTO 30007KT 10SM CLR 16/09 A3027 RMK AO2 T01620088
KRQO 221635Z AUTO 32008KT 10SM CLR 16/09 A3026 RMK AO2 T01580087
KRQO 221615Z AUTO 32009KT 10SM CLR 15/09 A3025 RMK AO2 T01510086
KRQO 221555Z AUTO 32009KT 10SM CLR 14/09 A3025 RMK AO2 T01450088
KRQO 221535Z AUTO 32012KT 10SM CLR 14/08 A3025 RMK AO2 T01370084
KRQO 221515Z AUTO 33011KT 10SM CLR 13/08 A3024 RMK AO2 T01270077
KRQO 221455Z AUTO 33010KT 10SM CLR 12/08 A3023 RMK AO2 T01220079
KRQO 221435Z AUTO 33010KT 10SM CLR 11/08 A3022 RMK AO2 T01150079
KRQO 221415Z AUTO 32008KT 10SM CLR 11/08 A3022 RMK AO2 T01070079
KRQO 221355Z AUTO 32008KT 10SM CLR 10/08 A3020 RMK AO2 T00980076
KRQO 221335Z AUTO 32011KT 10SM CLR 09/07 A3019 RMK AO2 T00880072
KRQO 221315Z AUTO 33013KT 10SM CLR 08/07 A3019 RMK AO2 T00800068
KRQO 221255Z AUTO 32014KT 10SM CLR 08/07 A3019 RMK AO2 T00790067
KRQO 221235Z AUTO 33008KT 10SM CLR 09/07 A3019 RMK AO2 T00850070
KRQO 221215Z AUTO 32008KT 10SM CLR 09/08 A3018 RMK AO2 T00880075
KRQO 221155Z AUTO 32007KT 10SM CLR 09/08 A3017 RMK AO2 T00930083 10133 20092 70110
KRQO 221135Z AUTO 32006KT 10SM CLR 10/09 A3016 RMK AO2 T00970093
KRQO 221115Z AUTO 32007KT 10SM CLR 10/09 A3015 RMK AO2 T00960092
KRQO 221055Z AUTO 32006KT 10SM CLR 09/09 A3015 RMK AO2 T00920086
KRQO 221035Z AUTO 34008KT 10SM CLR 09/09 A3014 RMK AO2 T00950089
KRQO 221015Z AUTO 34007KT 10SM CLR 10/09 A3013 RMK AO2 T00970092
KRQO 220955Z AUTO 34006KT 10SM CLR 10/09 A3013 RMK AO2 T01000094
KRQO 220935Z AUTO 36006KT 10SM CLR 11/10 A3013 RMK AO2 T01060099
KRQO 220915Z AUTO 34006KT 10SM CLR 11/10 A3013 RMK AO2 T01080101
KRQO 220855Z AUTO 35007KT 10SM CLR 11/10 A3011 RMK AO2 T01130104
KRQO 220835Z AUTO 36008KT 10SM CLR 12/11 A3009 RMK AO2 T01160106
KRQO 220815Z AUTO 01010KT 10SM CLR 12/11 A3008 RMK AO2 T01190106
KRQO 220755Z AUTO 01010KT 10SM CLR 12/11 A3008 RMK AO2 T01210109
KRQO 220735Z AUTO 01008KT 10SM CLR 12/11 A3007 RMK AO2 T01220112
KRQO 220715Z AUTO 01010KT 10SM CLR 12/11 A3006 RMK AO2 T01240110
KRQO 220655Z AUTO 02014KT 10SM CLR 13/11 A3005 RMK AO2 LTG DSNT S T01260110
KRQO 220635Z AUTO 02016KT 10SM SCT014 13/11 A3005 RMK AO2 T01290111
KRQO 220615Z AUTO 02011KT 10SM CLR 13/12 A3004 RMK AO2 LTG DSNT NE AND E T01320116
KRQO 220555Z AUTO 01014G23KT 10SM SCT100 SCT120 13/12 A3002 RMK AO2 LTG DSNT E T01330116 10215 20133 60105
KRQO 220535Z AUTO 03021G26KT 10SM BKN100 OVC120 13/12 A2997 RMK AO2 LTG DSNT E AND S T01350120
KRQO 220515Z AUTO 03016KT 10SM BKN110 14/12 A3000 RMK AO2 LTG DSNT NE THRU SE T01370124
KRQO 220455Z AUTO 02013KT 10SM -VCTSRA SCT016 SCT049 BKN120 14/12 A3003 RMK AO2 LTG DSNT NE THRU S P0001 T01380124
KRQO 220430Z AUTO 31008KT 10SM -RA SCT018 SCT060 OVC095 14/12 A3006 RMK AO2 LTG DSNT NE THRU SE T01390125
KRQO 220415Z AUTO 34009G16KT 10SM -RA BKN095 OVC110 14/12 A3004 RMK AO2 LTG DSNT NE THRU S T01390124
KRQO 220355Z AUTO 36015G18KT 10SM VCTS OVC120 14/12 A2999 RMK AO2 LTG DSNT NE THRU S P0001 T01370124
KRQO 220335Z AUTO 34013KT 10SM -VCTSRA OVC100 14/12 A2999 RMK AO2 LTG DSNT N THRU S P0001 T01370123